Time;durP1;ratioP1;P1;durP2;ratioP2;P2;SDS_P1;SDS_P2;PMS_P1;PMS_P2;Temp;Humidity;BMP_temperature;BMP_pressure;BME280_temperature;BME280_humidity;BME280_pressure;Samples;Min_cycle;Max_cycle;Signal;HPM_P1;HPM_P2
2022/04/18 00:00:56;;;;;;;24.10;10.70;;;;;;;-3.37;74.61;98955.63;105251;1266;74175;-26
2022/04/18 00:03:45;;;;;;;20.10;9.90;;;;;;;-3.55;75.31;98949.95;105510;1265;62158;-27
2022/04/18 00:06:14;;;;;;;18.50;6.40;;;;;;;-3.67;75.70;98951.79;105458;1265;61098;-27
2022/04/18 00:08:45;;;;;;;19.50;8.70;;;;;;;-3.14;75.99;98951.45;105296;1263;75702;-27
2022/04/18 00:11:34;;;;;;;30.30;12.80;;;;;;;-2.14;74.33;98952.00;105406;1265;77026;-27
2022/04/18 00:14:02;;;;;;;36.20;14.80;;;;;;;-1.91;73.55;98950.77;105312;1265;74134;-27
2022/04/18 00:16:31;;;;;;;31.70;15.10;;;;;;;-2.01;73.49;98951.41;105474;1265;61157;-27
2022/04/18 00:19:20;;;;;;;22.00;10.10;;;;;;;-2.28;73.38;98954.13;105413;1265;62185;-27
2022/04/18 00:21:50;;;;;;;29.60;8.50;;;;;;;-2.58;73.29;98944.80;105326;1265;75665;-27
2022/04/18 00:24:21;;;;;;;15.10;6.70;;;;;;;-2.87;73.75;98942.57;105429;1265;75405;-26
2022/04/18 00:27:09;;;;;;;16.20;7.80;;;;;;;-3.17;74.15;98936.26;105473;1265;75532;-28
2022/04/18 00:29:37;;;;;;;15.80;7.90;;;;;;;-3.40;74.68;98936.34;105508;1265;61130;-27
2022/04/18 00:32:07;;;;;;;19.40;8.60;;;;;;;-3.60;75.66;98931.25;105249;1265;61134;-26
2022/04/18 00:34:55;;;;;;;21.90;8.30;;;;;;;-3.83;76.63;98928.94;104968;1268;76662;-27
2022/04/18 00:37:24;;;;;;;11.60;4.40;;;;;;;-4.02;76.85;98923.98;105218;1265;75897;-26
2022/04/18 00:39:52;;;;;;;13.00;6.30;;;;;;;-3.61;76.55;98920.58;105214;1265;74474;-27
2022/04/18 00:42:43;;;;;;;15.30;6.60;;;;;;;-2.68;75.09;98918.57;105166;1265;61638;-27
2022/04/18 00:45:11;;;;;;;15.80;7.50;;;;;;;-2.46;74.07;98919.80;104975;1266;61224;-27
2022/04/18 00:47:40;;;;;;;22.40;8.80;;;;;;;-2.59;74.20;98916.77;105166;1265;75497;-27
2022/04/18 00:50:09;;;;;;;15.20;7.50;;;;;;;-2.81;74.44;98913.69;105277;1265;76015;-27
2022/04/18 00:52:54;;;;;;;15.20;6.40;;;;;;;-3.07;75.13;98910.85;105353;1265;74449;-27
2022/04/18 00:55:24;;;;;;;15.40;6.70;;;;;;;-3.41;75.48;98912.08;105154;1265;61484;-27
2022/04/18 00:57:53;;;;;;;14.20;5.90;;;;;;;-3.74;76.48;98910.89;105002;1266;62779;-26
2022/04/18 01:00:33;;;;;;;13.10;7.60;;;;;;;-4.01;80.11;98914.27;105018;1265;75249;-27
2022/04/18 01:03:03;;;;;;;9.60;5.70;;;;;;;-4.08;80.65;98910.71;105229;1265;75994;-27
2022/04/18 01:05:32;;;;;;;10.60;5.30;;;;;;;-4.21;79.02;98905.75;105064;1266;74363;-27
2022/04/18 01:08:02;;;;;;;9.40;5.00;;;;;;;-4.41;78.32;98900.45;105022;1265;62064;-26
2022/04/18 01:10:32;;;;;;;12.70;5.50;;;;;;;-3.98;77.83;98900.44;105091;1265;61211;-26
2022/04/18 01:13:01;;;;;;;13.00;6.20;;;;;;;-3.05;76.09;98894.98;105112;1265;74517;-27
2022/04/18 01:15:39;;;;;;;14.40;7.50;;;;;;;-2.76;74.63;98891.64;105011;1265;76014;-27
2022/04/18 01:18:26;;;;;;;12.50;6.80;;;;;;;-2.90;74.69;98889.14;105222;1265;74677;-27
2022/04/18 01:21:21;;;;;;;12.10;5.10;;;;;;;-3.15;75.59;98889.99;105285;1265;61262;-29
2022/04/18 01:30:21;;;;;;;5.40;3.10;;;;;;;-3.97;76.72;98878.04;105575;1265;76176;-28
2022/04/18 01:32:51;;;;;;;10.90;4.90;;;;;;;-4.16;77.38;98868.17;105356;1265;74448;-28
2022/04/18 01:35:19;;;;;;;8.50;4.20;;;;;;;-4.39;78.07;98869.03;105179;1265;61117;-27
2022/04/18 01:37:48;;;;;;;5.70;3.10;;;;;;;-4.55;78.36;98869.41;105143;1266;61138;-27
2022/04/18 01:40:18;;;;;;;9.10;4.50;;;;;;;-4.07;78.65;98867.09;105210;1263;74057;-28
2022/04/18 01:42:47;;;;;;;11.10;5.40;;;;;;;-3.15;77.07;98866.73;105457;1265;76345;-27
2022/04/18 01:45:16;;;;;;;8.10;4.70;;;;;;;-2.88;75.53;98868.17;105476;1265;74520;-27
2022/04/18 01:47:51;;;;;;;10.10;5.20;;;;;;;-3.05;75.19;98865.11;105176;1266;61103;-26
2022/04/18 01:50:20;;;;;;;4.80;2.90;;;;;;;-3.27;75.18;98860.45;105004;1268;62301;-28
2022/04/18 01:52:48;;;;;;;6.30;3.90;;;;;;;-3.51;75.59;98861.42;105278;1265;75482;-26
2022/04/18 01:55:17;;;;;;;7.90;3.10;;;;;;;-3.80;77.38;98861.16;105268;1268;76049;-26
2022/04/18 01:57:50;;;;;;;5.80;3.20;;;;;;;-4.02;77.01;98860.89;104995;1268;73466;-27
2022/04/18 02:00:20;;;;;;;10.50;5.30;;;;;;;-4.27;78.05;98860.61;104920;1268;61150;-28
2022/04/18 02:02:48;;;;;;;7.10;4.00;;;;;;;-4.49;79.14;98860.13;105086;1268;62051;-28
2022/04/18 02:05:17;;;;;;;6.70;3.80;;;;;;;-4.61;79.01;98851.90;105227;1268;75602;-29
2022/04/18 02:07:46;;;;;;;5.90;3.00;;;;;;;-4.72;79.96;98849.45;104994;1268;76063;-26
2022/04/18 02:10:15;;;;;;;9.50;4.30;;;;;;;-4.19;79.14;98847.38;105031;1268;74214;-26
2022/04/18 02:12:53;;;;;;;11.50;4.80;;;;;;;-3.27;76.20;98845.50;104955;1268;61143;-28
2022/04/18 02:15:22;;;;;;;9.30;5.00;;;;;;;-3.15;74.34;98842.63;105103;1268;61037;-26
2022/04/18 02:17:59;;;;;;;10.70;4.80;;;;;;;-3.30;74.54;98837.61;105444;1268;75439;-26
2022/04/18 02:20:28;;;;;;;7.60;4.00;;;;;;;-3.53;74.57;98832.11;105360;1268;75944;-27
2022/04/18 02:22:56;;;;;;;6.60;3.40;;;;;;;-3.79;75.20;98829.93;105028;1268;74168;-27
2022/04/18 02:25:25;;;;;;;8.60;3.80;;;;;;;-4.06;75.15;98827.39;105108;1268;61071;-27
2022/04/18 02:27:58;;;;;;;5.40;3.10;;;;;;;-4.39;75.85;98824.63;105512;1268;61145;-27
2022/04/18 02:30:37;;;;;;;4.00;2.10;;;;;;;-4.69;76.02;98824.83;105308;1269;75415;-26
2022/04/18 02:33:06;;;;;;;3.80;2.40;;;;;;;-4.88;76.82;98816.95;105218;1268;76010;-27
2022/04/18 02:35:34;;;;;;;4.20;1.90;;;;;;;-5.03;77.86;98813.38;105210;1268;74162;-28
2022/04/18 02:38:03;;;;;;;4.80;2.10;;;;;;;-5.12;79.77;98811.89;105046;1267;61967;-27
2022/04/18 02:40:44;;;;;;;6.50;2.40;;;;;;;-4.57;80.27;98812.33;105234;1268;61124;-28
2022/04/18 02:43:13;;;;;;;5.40;2.90;;;;;;;-3.76;77.79;98809.98;105581;1268;75701;-26
2022/04/18 02:45:48;;;;;;;3.40;2.30;;;;;;;-3.54;76.52;98810.23;105253;1268;75984;-26
2022/04/18 02:48:42;;;;;;;3.40;2.00;;;;;;;-3.65;76.46;98813.96;105558;1268;74446;-26
2022/04/18 02:51:13;;;;;;;3.60;2.20;;;;;;;-3.85;76.26;98806.34;105142;1268;61146;-26
2022/04/18 02:53:42;;;;;;;3.70;1.40;;;;;;;-4.09;76.20;98808.14;105542;1267;61124;-26
2022/04/18 02:56:13;;;;;;;5.30;1.60;;;;;;;-4.35;76.66;98809.77;105549;1265;75596;-26
2022/04/18 02:58:47;;;;;;;2.40;1.10;;;;;;;-4.56;77.14;98810.12;105605;1265;75918;-26
2022/04/18 03:01:15;;;;;;;3.30;1.60;;;;;;;-4.77;78.46;98815.19;105526;1266;73373;-26
2022/04/18 03:03:45;;;;;;;4.00;2.20;;;;;;;-4.98;80.46;98815.98;105184;1267;62245;-27
2022/04/18 03:06:16;;;;;;;4.40;2.40;;;;;;;-5.14;80.61;98810.05;105063;1265;61149;-26
2022/04/18 03:08:45;;;;;;;8.80;4.50;;;;;;;-4.60;79.63;98807.48;105218;1265;75523;-26
2022/04/18 03:11:14;;;;;;;14.90;6.40;;;;;;;-3.82;77.05;98805.23;105028;1265;75999;-28
2022/04/18 03:13:46;;;;;;;10.20;5.10;;;;;;;-3.59;77.17;98804.12;105082;1265;74466;-28
2022/04/18 03:16:31;;;;;;;7.40;3.10;;;;;;;-3.63;75.35;98801.52;105258;1265;61147;-26
2022/04/18 03:19:01;;;;;;;4.40;2.40;;;;;;;-3.90;74.55;98795.27;105154;1265;61913;-26
2022/04/18 03:21:30;;;;;;;4.60;2.30;;;;;;;-4.16;74.96;98792.20;105104;1268;74621;-28
2022/04/18 03:23:59;;;;;;;6.90;2.60;;;;;;;-4.40;75.06;98796.17;105290;1265;75733;-26
2022/04/18 03:26:38;;;;;;;7.80;3.00;;;;;;;-4.62;75.46;98791.96;105205;1265;73377;-26
2022/04/18 03:29:14;;;;;;;7.80;3.70;;;;;;;-4.81;76.49;98788.17;105196;1265;62103;-28
2022/04/18 03:31:43;;;;;;;7.60;4.40;;;;;;;-4.94;77.34;98783.05;105177;1265;61113;-25
2022/04/18 03:34:13;;;;;;;7.50;2.90;;;;;;;-5.05;77.95;98780.91;104966;1268;75781;-26
2022/04/18 03:42:18;;;;;;;1.70;1.20;;;;;;;-3.58;75.67;98777.28;105397;1265;61037;-26
2022/04/18 03:44:48;;;;;;;3.80;1.60;;;;;;;-3.41;74.79;98772.55;105013;1268;62039;-26
2022/04/18 03:47:17;;;;;;;1.90;1.30;;;;;;;-3.57;74.07;98769.27;105208;1265;74524;-26
2022/04/18 03:49:45;;;;;;;8.40;1.70;;;;;;;-3.85;73.86;98757.29;105331;1265;76002;-26
2022/04/18 03:52:14;;;;;;;4.10;1.20;;;;;;;-4.14;74.16;98757.90;105437;1265;74572;-26
2022/04/18 03:54:44;;;;;;;2.00;1.20;;;;;;;-4.39;74.40;98750.23;105557;1265;61060;-26
2022/04/18 03:57:15;;;;;;;2.80;1.00;;;;;;;-4.67;75.03;98754.80;105241;1268;61918;-25
2022/04/18 04:00:05;;;;;;;2.00;1.30;;;;;;;-4.98;75.92;98751.96;105048;1268;75528;-25
2022/04/18 04:02:43;;;;;;;3.40;1.20;;;;;;;-5.19;76.66;98750.40;105032;1269;76398;-28
2022/04/18 04:05:16;;;;;;;;;;;;;;;-5.32;76.90;98747.30;105085;1268;73280;-27
2022/04/18 04:07:48;;;;;;;1.40;1.00;;;;;;;-5.42;77.46;98745.65;105057;1268;61127;-27
2022/04/18 04:10:38;;;;;;;1.80;1.50;;;;;;;-5.49;77.14;98744.27;105177;1268;61798;-27
2022/04/18 04:13:12;;;;;;;1.80;1.20;;;;;;;-5.49;78.23;98742.73;105150;1268;75349;-27
2022/04/18 04:15:42;;;;;;;2.40;1.40;;;;;;;-4.79;78.74;98742.55;105189;1268;74890;-27
2022/04/18 04:18:23;;;;;;;3.40;1.40;;;;;;;-3.57;76.37;98741.08;105018;1268;74345;-27
2022/04/18 04:20:53;;;;;;;3.10;1.60;;;;;;;-3.04;75.14;98738.17;105143;1268;61150;-27
2022/04/18 04:23:23;;;;;;;2.40;1.90;;;;;;;-2.92;73.97;98731.72;105067;1268;61093;-27
2022/04/18 04:26:29;;;;;;;1.20;1.00;;;;;;;-2.99;74.30;98725.11;105064;1268;75556;-27
2022/04/18 04:28:59;;;;;;;2.50;0.90;;;;;;;-3.09;74.93;98723.56;105247;1268;76057;-28
2022/04/18 04:31:34;;;;;;;1.70;1.20;;;;;;;-3.17;75.70;98718.02;105320;1268;74189;-27
2022/04/18 04:34:10;;;;;;;3.10;1.40;;;;;;;-3.22;76.28;98717.50;105212;1268;61315;-27
2022/04/18 04:36:46;;;;;;;2.20;1.30;;;;;;;-3.25;77.67;98718.27;105311;1268;61098;-27
2022/04/18 04:39:17;;;;;;;2.90;1.80;;;;;;;-3.27;78.15;98711.88;105073;1268;74052;-28
2022/04/18 04:41:47;;;;;;;1.80;1.20;;;;;;;-3.24;78.44;98711.44;105162;1268;75727;-28
2022/04/18 04:44:30;;;;;;;3.80;1.60;;;;;;;-2.50;78.38;98712.32;105451;1268;74577;-27
2022/04/18 04:47:01;;;;;;;3.50;2.50;;;;;;;-1.54;76.44;98714.77;105515;1268;62313;-26
2022/04/18 04:49:31;;;;;;;4.60;2.90;;;;;;;-1.24;74.92;98710.58;105201;1269;60955;-26
2022/04/18 04:52:32;;;;;;;3.80;2.80;;;;;;;-1.17;74.66;98709.45;105329;1268;75313;-26
2022/04/18 04:55:02;;;;;;;8.30;1.80;;;;;;;-1.24;75.00;98712.11;105414;1268;76083;-27
2022/04/18 04:57:39;;;;;;;4.80;2.10;;;;;;;-1.29;75.16;98708.21;105304;1265;70431;-28
2022/04/18 05:00:31;;;;;;;2.90;2.20;;;;;;;-1.34;74.87;98709.62;105000;1265;61120;-27
2022/04/18 05:03:35;;;;;;;3.80;2.10;;;;;;;-1.43;75.04;98702.80;104686;1274;62043;-27
2022/04/18 05:06:07;;;;;;;3.20;2.30;;;;;;;-1.47;75.43;98702.29;104984;1266;74422;-26
2022/04/18 05:08:41;;;;;;;;;;;;;;;-1.48;75.61;98695.66;104981;1265;555470;-27
2022/04/18 05:11:10;;;;;;;3.10;2.10;;;;;;;-1.45;76.00;98695.53;105073;1266;74174;-26
2022/04/18 05:14:07;;;;;;;3.20;1.30;;;;;;;-1.29;76.23;98691.73;105504;1265;61860;-31
2022/04/18 05:17:07;;;;;;;2.90;1.80;;;;;;;-0.15;74.88;98693.39;105107;1266;61051;-27
2022/04/18 05:19:39;;;;;;;4.60;2.10;;;;;;;0.65;72.67;98692.45;105291;1265;74210;-26
2022/04/18 05:22:18;;;;;;;3.90;2.50;;;;;;;0.94;71.68;98689.52;105413;1265;76110;-27
2022/04/18 05:24:46;;;;;;;3.40;2.20;;;;;;;1.04;71.28;98689.41;105227;1265;74694;-28
2022/04/18 05:27:16;;;;;;;4.00;2.60;;;;;;;0.98;71.17;98685.25;105238;1265;60974;-28
2022/04/18 05:29:46;;;;;;;4.90;2.80;;;;;;;1.00;72.01;98682.40;105230;1266;61076;-29
2022/04/18 05:32:15;;;;;;;4.10;3.20;;;;;;;1.13;72.25;98681.82;105307;1266;74546;-26
2022/04/18 05:34:51;;;;;;;3.80;2.50;;;;;;;1.20;72.43;98680.45;105633;1265;75785;-27
2022/04/18 05:37:32;;;;;;;4.40;3.00;;;;;;;1.39;70.89;98679.16;105541;1265;74439;-27
2022/04/18 05:40:24;;;;;;;4.10;2.80;;;;;;;1.68;71.25;98678.08;105509;1265;61118;-27
2022/04/18 05:42:56;;;;;;;6.00;2.70;;;;;;;1.99;70.78;98677.73;105150;1266;61083;-28
2022/04/18 05:45:25;;;;;;;6.50;2.80;;;;;;;2.22;69.76;98675.49;105234;1265;75522;-28
2022/04/18 05:48:02;;;;;;;3.60;2.60;;;;;;;2.51;68.28;98673.39;105278;1265;76097;-28
2022/04/18 05:50:33;;;;;;;4.70;2.20;;;;;;;2.57;67.44;98671.77;105543;1265;74535;-28
2022/04/18 05:53:14;;;;;;;3.50;2.40;;;;;;;2.51;65.99;98665.89;105546;1268;61090;-25
2022/04/18 05:56:13;;;;;;;4.30;2.20;;;;;;;2.50;67.20;98663.21;105425;1265;61812;-27
2022/04/18 05:58:59;;;;;;;3.60;1.80;;;;;;;2.76;66.12;98660.92;105470;1265;75505;-26
2022/04/18 06:01:48;;;;;;;4.40;2.50;;;;;;;2.92;64.70;98668.48;105318;1265;75998;-26
2022/04/18 06:04:37;;;;;;;3.90;2.00;;;;;;;3.10;64.83;98668.63;105541;1265;74458;-26
2022/04/18 06:07:35;;;;;;;3.20;1.80;;;;;;;3.19;62.88;98666.27;105321;1265;61136;-26
2022/04/18 06:10:22;;;;;;;1.50;1.10;;;;;;;3.23;60.95;98669.80;105296;1265;61659;-27
2022/04/18 06:13:00;;;;;;;1.90;0.90;;;;;;;3.45;62.19;98669.93;105060;1268;75547;-27
2022/04/18 06:15:30;;;;;;;2.90;1.00;;;;;;;3.73;61.49;98661.75;105206;1268;75206;-26
2022/04/18 06:18:19;;;;;;;4.20;1.80;;;;;;;4.10;59.86;98661.61;105035;1265;74516;-26
2022/04/18 06:20:48;;;;;;;3.00;1.70;;;;;;;4.31;58.82;98659.83;104987;1268;61073;-26
2022/04/18 06:23:17;;;;;;;3.50;2.00;;;;;;;4.46;59.18;98656.66;105091;1265;61141;-26
2022/04/18 06:25:49;;;;;;;2.60;1.50;;;;;;;4.55;58.45;98656.13;105230;1268;75823;-26
2022/04/18 06:28:19;;;;;;;3.40;1.90;;;;;;;4.51;57.85;98655.14;105092;1270;76084;-26
2022/04/18 06:30:48;;;;;;;2.30;1.50;;;;;;;4.67;57.57;98657.98;105232;1271;75402;-26
2022/04/18 06:35:15;;;;;;;4.00;1.50;;;;;;;5.18;57.54;98656.92;101792;1310;601531;-26
2022/04/18 06:37:59;;;;;;;4.80;1.90;;;;;;;5.52;56.13;98656.92;104444;1283;61235;-25
2022/04/18 06:40:48;;;;;;;5.20;2.90;;;;;;;5.39;54.67;98658.30;104458;1283;61812;-25
2022/04/18 06:43:17;;;;;;;7.40;3.60;;;;;;;5.18;54.46;98655.90;104422;1284;72820;-26
2022/04/18 06:45:48;;;;;;;5.90;3.00;;;;;;;5.61;54.16;98656.91;104605;1281;75956;-27
2022/04/18 06:48:17;;;;;;;7.20;2.60;;;;;;;5.25;54.52;98652.92;104147;1278;558995;-25
2022/04/18 06:51:08;;;;;;;3.60;1.80;;;;;;;4.96;54.06;98650.23;104672;1278;61107;-24
2022/04/18 06:53:56;;;;;;;2.70;1.80;;;;;;;4.97;53.55;98651.05;104655;1277;61076;-26
2022/04/18 06:57:00;;;;;;;3.90;2.10;;;;;;;5.24;53.39;98650.02;104597;1278;73807;-27
2022/04/18 06:59:40;;;;;;;7.80;2.80;;;;;;;5.32;53.79;98647.42;104671;1278;75988;-25
2022/04/18 07:02:10;;;;;;;5.70;2.30;;;;;;;5.98;52.86;98645.92;104521;1278;73449;-26
2022/04/18 07:04:59;;;;;;;5.00;2.40;;;;;;;6.49;52.29;98651.41;104586;1278;61412;-24
2022/04/18 07:07:28;;;;;;;4.60;2.90;;;;;;;6.65;50.84;98651.35;104634;1281;61047;-26
2022/04/18 07:10:16;;;;;;;4.70;2.20;;;;;;;6.44;49.82;98644.89;104576;1278;74815;-26
2022/04/18 07:12:46;;;;;;;5.60;2.00;;;;;;;6.63;50.08;98646.00;104428;1279;75926;-26
2022/04/18 07:15:34;;;;;;;2.60;2.10;;;;;;;6.35;51.44;98645.30;104310;1278;75775;-27
2022/04/18 07:18:04;;;;;;;2.30;1.40;;;;;;;5.62;51.56;98643.02;104342;1278;61093;-26
2022/04/18 07:20:52;;;;;;;1.90;1.30;;;;;;;6.25;50.40;98640.69;104429;1278;61879;-26
2022/04/18 07:23:22;;;;;;;2.30;1.30;;;;;;;6.77;50.32;98635.98;105161;1271;73662;-26
2022/04/18 07:25:58;;;;;;;2.50;1.40;;;;;;;6.76;49.52;98632.23;105146;1271;76016;-27
2022/04/18 07:28:51;;;;;;;2.30;1.60;;;;;;;6.42;49.65;98628.28;105123;1271;74464;-26
2022/04/18 07:31:20;;;;;;;2.90;1.60;;;;;;;6.28;50.28;98627.89;105075;1271;61933;-26
2022/04/18 07:33:49;;;;;;;3.90;2.30;;;;;;;5.87;50.10;98627.09;104953;1271;61913;-26
2022/04/18 07:36:20;;;;;;;13.10;6.40;;;;;;;5.54;50.58;98626.17;105016;1271;72683;-27
2022/04/18 07:38:51;;;;;;;18.20;8.80;;;;;;;5.85;50.43;98626.64;105003;1271;76012;-26
2022/04/18 07:41:29;;;;;;;5.70;2.20;;;;;;;5.88;49.35;98625.09;105075;1274;74321;-27
2022/04/18 07:44:01;;;;;;;5.90;2.90;;;;;;;6.44;48.67;98622.29;104763;1271;62039;-25
2022/04/18 07:46:30;;;;;;;4.20;2.50;;;;;;;6.35;48.42;98618.41;104851;1271;62534;-25
2022/04/18 07:49:01;;;;;;;3.30;2.50;;;;;;;6.77;48.24;98617.69;104956;1271;74818;-25
2022/04/18 07:51:38;;;;;;;8.30;1.90;;;;;;;6.94;47.65;98612.98;105126;1271;76030;-25
2022/04/18 07:54:22;;;;;;;5.30;1.70;;;;;;;7.38;46.10;98615.16;105129;1271;74378;-25
2022/04/18 07:56:51;;;;;;;10.80;3.50;;;;;;;7.91;45.11;98607.71;105032;1271;61943;-25
2022/04/18 07:59:23;;;;;;;5.60;2.80;;;;;;;8.31;43.29;98607.05;104774;1271;62075;-25
2022/04/18 08:01:52;;;;;;;3.40;1.90;;;;;;;8.62;43.23;98604.73;104814;1271;75580;-25
2022/04/18 08:04:50;;;;;;;3.50;2.10;;;;;;;8.26;43.02;98601.30;104922;1271;76256;-25
2022/04/18 08:07:22;;;;;;;2.90;2.00;;;;;;;7.12;45.14;98598.41;105006;1271;72351;-26
2022/04/18 08:10:00;;;;;;;3.90;2.00;;;;;;;6.75;45.92;98597.48;104761;1271;62401;-26
2022/04/18 08:12:31;;;;;;;2.40;1.90;;;;;;;6.42;46.82;98594.65;104980;1271;61022;-27
2022/04/18 08:15:25;;;;;;;6.60;2.60;;;;;;;6.49;47.11;98592.44;104982;1271;74919;-26
2022/04/18 08:17:55;;;;;;;3.80;1.90;;;;;;;7.15;46.10;98591.80;105052;1271;75743;-26
2022/04/18 08:20:54;;;;;;;4.00;2.60;;;;;;;7.77;45.16;98583.88;105056;1271;74395;-27
2022/04/18 08:23:23;;;;;;;7.40;4.10;;;;;;;7.06;46.03;98584.89;104999;1271;61137;-27
2022/04/18 08:26:22;;;;;;;10.30;5.30;;;;;;;7.01;44.86;98585.57;104322;1271;61966;-26
2022/04/18 08:28:54;;;;;;;3.50;2.10;;;;;;;6.89;44.85;98584.19;105090;1271;73799;-25
2022/04/18 08:31:24;;;;;;;10.70;6.70;;;;;;;6.89;44.87;98583.48;105045;1271;75848;-25
2022/04/18 08:33:53;;;;;;;7.40;4.30;;;;;;;6.52;46.57;98582.73;105080;1271;74385;-25
2022/04/18 08:36:22;;;;;;;2.40;1.60;;;;;;;6.95;45.42;98582.20;104924;1271;62088;-25
2022/04/18 08:38:51;;;;;;;3.60;2.00;;;;;;;7.06;45.51;98576.92;104969;1271;61104;-26
2022/04/18 08:41:35;;;;;;;2.20;1.30;;;;;;;6.43;46.28;98577.86;105181;1271;74784;-25
2022/04/18 08:44:04;;;;;;;3.40;1.40;;;;;;;5.85;47.42;98575.03;104931;1271;76086;-25
2022/04/18 08:46:33;;;;;;;4.90;2.00;;;;;;;6.06;47.02;98572.89;105085;1272;73194;-25
2022/04/18 08:54:43;;;;;;;2.20;1.10;;;;;;;4.83;49.83;98570.11;104971;1271;74527;-27
2022/04/18 08:57:13;;;;;;;1.50;1.40;;;;;;;4.76;50.56;98568.30;104774;1271;76002;-25
2022/04/18 08:59:42;;;;;;;21.10;2.20;;;;;;;4.73;51.07;98565.73;104959;1271;73855;-27
2022/04/18 09:02:11;;;;;;;2.50;1.60;;;;;;;4.65;51.13;98562.48;104811;1271;61300;-26
2022/04/18 09:04:57;;;;;;;7.10;2.80;;;;;;;4.71;50.95;98563.50;104812;1271;61547;-27
2022/04/18 09:07:27;;;;;;;2.30;1.20;;;;;;;4.93;50.90;98562.17;104838;1271;74737;-26
2022/04/18 09:09:59;;;;;;;3.80;2.00;;;;;;;4.97;50.31;98561.29;104782;1271;75861;-26
2022/04/18 09:12:28;;;;;;;2.20;1.00;;;;;;;4.67;51.23;98559.94;104995;1271;74160;-26
2022/04/18 09:15:46;;;;;;;8.70;4.90;;;;;;;4.61;51.39;98552.56;105028;1271;61307;-26
2022/04/18 09:18:19;;;;;;;9.00;5.30;;;;;;;4.46;50.96;98548.58;104931;1271;61737;-27
2022/04/18 09:20:51;;;;;;;14.10;9.00;;;;;;;4.47;52.08;98543.66;104844;1272;74573;-25
2022/04/18 09:23:32;;;;;;;32.70;18.80;;;;;;;4.02;52.58;98542.73;105088;1272;76153;-25
2022/04/18 09:26:14;;;;;;;2.20;1.50;;;;;;;4.14;52.05;98544.25;105039;1271;74392;-26
2022/04/18 09:28:43;;;;;;;7.10;2.80;;;;;;;4.40;52.14;98539.70;104779;1271;61097;-26
2022/04/18 09:31:18;;;;;;;25.90;16.00;;;;;;;4.44;51.32;98538.02;104984;1271;61909;-25
2022/04/18 09:33:55;;;;;;;4.30;2.10;;;;;;;4.32;51.39;98537.41;104949;1271;72356;-25
2022/04/18 09:36:25;;;;;;;5.30;1.80;;;;;;;4.31;51.16;98532.14;104757;1275;75874;-25
2022/04/18 09:38:55;;;;;;;5.30;1.70;;;;;;;4.11;51.24;98531.70;104895;1271;73031;-27
2022/04/18 09:41:50;;;;;;;3.00;1.60;;;;;;;4.22;51.44;98533.23;104893;1274;61061;-26
2022/04/18 09:44:44;;;;;;;3.30;1.80;;;;;;;4.47;50.66;98535.45;104919;1272;61889;-25
2022/04/18 09:47:17;;;;;;;2.90;1.80;;;;;;;4.49;49.27;98533.40;105128;1271;74570;-25
2022/04/18 09:49:47;;;;;;;3.20;1.80;;;;;;;4.41;49.23;98534.12;104749;1271;74957;-26
2022/04/18 09:52:21;;;;;;;2.50;1.50;;;;;;;4.20;49.92;98530.10;104832;1271;74521;-26
2022/04/18 09:54:52;;;;;;;8.70;2.30;;;;;;;3.83;51.96;98530.63;105024;1272;61112;-26
2022/04/18 09:57:23;;;;;;;28.40;15.40;;;;;;;3.56;52.93;98527.52;104839;1271;61166;-26
2022/04/18 09:59:52;;;;;;;8.20;4.90;;;;;;;3.66;53.27;98530.52;105003;1271;74859;-26
2022/04/18 10:02:21;;;;;;;2.50;1.50;;;;;;;3.58;54.41;98532.36;104604;1271;75973;-26
2022/04/18 10:04:51;;;;;;;3.90;2.20;;;;;;;3.47;54.28;98531.98;104910;1271;74274;-26
2022/04/18 10:07:34;;;;;;;3.90;1.60;;;;;;;3.51;54.39;98532.29;104716;1271;61714;-26
2022/04/18 10:10:03;;;;;;;6.90;1.80;;;;;;;3.50;55.01;98535.59;104794;1274;61052;-26
2022/04/18 10:12:52;;;;;;;6.60;1.70;;;;;;;3.33;54.60;98539.33;105069;1271;75908;-26
2022/04/18 10:15:21;;;;;;;2.40;1.60;;;;;;;3.35;54.40;98539.75;104891;1271;76044;-26
2022/04/18 10:18:12;;;;;;;1.60;1.00;;;;;;;3.36;54.88;98541.07;105094;1271;73835;-26
2022/04/18 10:20:41;;;;;;;1.90;1.00;;;;;;;3.48;55.18;98541.90;105116;1271;61331;-26
2022/04/18 10:23:52;;;;;;;1.30;0.90;;;;;;;3.48;54.56;98536.42;105086;1272;61067;-26
2022/04/18 10:26:50;;;;;;;4.00;1.40;;;;;;;3.51;54.81;98534.49;105108;1272;75907;-26
2022/04/18 10:29:50;;;;;;;1.40;1.00;;;;;;;3.43;54.44;98534.13;105124;1275;76092;-26
2022/04/18 10:32:24;;;;;;;9.70;1.80;;;;;;;3.56;54.73;98533.48;105007;1271;74747;-26
2022/04/18 10:34:52;;;;;;;;;;;;;;;3.52;54.64;98535.28;104909;1274;61007;-26
2022/04/18 10:37:23;;;;;;;1.50;0.90;;;;;;;3.58;54.71;98535.12;104911;1271;61163;-26
2022/04/18 10:40:02;;;;;;;2.00;1.10;;;;;;;3.69;54.16;98530.85;104756;1271;74790;-28
2022/04/18 10:42:35;;;;;;;1.90;1.30;;;;;;;3.73;53.77;98533.84;105113;1274;74761;-28
2022/04/18 10:45:10;;;;;;;1.30;1.00;;;;;;;3.65;54.20;98530.54;104815;1271;73407;-27
2022/04/18 10:48:03;;;;;;;3.60;1.10;;;;;;;3.64;54.03;98529.74;105010;1272;61257;-27
2022/04/18 10:50:33;;;;;;;;;;;;;;;3.62;54.39;98533.84;104991;1271;61985;-28
2022/04/18 10:53:15;;;;;;;2.50;1.80;;;;;;;3.53;54.88;98534.05;104768;1271;72353;-28
2022/04/18 10:55:50;;;;;;;1.80;0.80;;;;;;;3.52;54.79;98537.34;105121;1272;75968;-26
2022/04/18 10:58:27;;;;;;;6.30;1.80;;;;;;;3.57;54.58;98537.59;105119;1272;74389;-26
2022/04/18 11:01:00;;;;;;;2.40;1.30;;;;;;;3.60;54.09;98537.56;105098;1271;61899;-26
2022/04/18 11:03:36;;;;;;;4.20;1.50;;;;;;;3.54;54.25;98536.57;105046;1271;61188;-26
2022/04/18 11:06:37;;;;;;;2.70;1.80;;;;;;;3.58;53.54;98537.36;105144;1271;75605;-28
2022/04/18 11:09:07;;;;;;;2.90;1.60;;;;;;;3.66;53.45;98538.39;105152;1271;75373;-25
2022/04/18 11:12:06;;;;;;;1.80;1.20;;;;;;;3.70;53.19;98536.07;104821;1274;75386;-28
2022/04/18 11:14:38;;;;;;;3.00;1.50;;;;;;;3.79;53.13;98536.41;104844;1271;61386;-29
2022/04/18 11:17:10;;;;;;;1.80;1.20;;;;;;;3.81;52.65;98531.52;105132;1274;61159;-36
2022/04/18 11:19:44;;;;;;;1.50;0.90;;;;;;;3.83;52.27;98529.46;104908;1271;75359;-27
2022/04/18 11:22:18;;;;;;;4.80;1.40;;;;;;;3.80;52.03;98532.91;105119;1271;76075;-29
2022/04/18 11:24:47;;;;;;;3.10;1.10;;;;;;;3.79;52.39;98528.33;105122;1271;74651;-28
2022/04/18 11:27:20;;;;;;;7.00;3.00;;;;;;;3.84;51.97;98529.77;105111;1274;61484;-29
2022/04/18 11:30:00;;;;;;;5.60;2.60;;;;;;;4.03;51.58;98528.41;104913;1274;61162;-26
2022/04/18 11:32:33;;;;;;;2.20;1.40;;;;;;;4.08;51.21;98525.53;104929;1274;75695;-27
2022/04/18 11:35:05;;;;;;;7.00;2.00;;;;;;;4.20;50.45;98527.72;105040;1272;75967;-26
2022/04/18 11:37:47;;;;;;;6.80;2.70;;;;;;;4.37;50.67;98521.48;104756;1271;74319;-26
2022/04/18 11:40:17;;;;;;;8.60;4.40;;;;;;;4.63;50.65;98518.09;105065;1271;61150;-26
2022/04/18 11:42:50;;;;;;;5.70;2.50;;;;;;;4.71;50.41;98520.50;104993;1271;61119;-26
2022/04/18 11:45:25;;;;;;;5.20;3.00;;;;;;;4.65;51.10;98517.11;105157;1271;73850;-26
2022/04/18 11:47:54;;;;;;;2.90;1.60;;;;;;;4.47;51.29;98514.98;104896;1271;74889;-26
2022/04/18 11:50:23;;;;;;;1.80;0.90;;;;;;;4.67;50.82;98516.27;105186;1271;73171;-26
2022/04/18 11:53:03;;;;;;;2.40;1.50;;;;;;;4.79;49.86;98510.69;105166;1271;61278;-26
2022/04/18 11:55:48;;;;;;;4.70;1.30;;;;;;;4.76;50.22;98513.12;104976;1271;62087;-26
2022/04/18 11:58:39;;;;;;;3.20;1.50;;;;;;;4.48;51.86;98509.80;105112;1272;76643;-26
2022/04/18 12:07:03;;;;;;;2.70;1.40;;;;;;;4.19;53.41;98505.42;104936;1271;61086;-26
2022/04/18 12:09:32;;;;;;;1.40;1.10;;;;;;;4.22;52.67;98501.41;105150;1271;61014;-26
2022/04/18 12:12:02;;;;;;;2.60;1.10;;;;;;;4.17;52.53;98499.70;104842;1271;75706;-26
2022/04/18 12:14:50;;;;;;;4.10;1.40;;;;;;;4.23;52.67;98499.67;104777;1271;77123;-26
2022/04/18 12:17:20;;;;;;;4.80;1.50;;;;;;;4.35;52.21;98496.66;104829;1271;74354;-26
2022/04/18 12:20:41;;;;;;;5.00;3.00;;;;;;;4.40;52.34;98494.33;104760;1271;61379;-26
2022/04/18 12:23:26;;;;;;;2.50;1.30;;;;;;;4.54;52.18;98496.15;104916;1271;61111;-26
2022/04/18 12:26:11;;;;;;;2.50;1.00;;;;;;;4.80;52.26;98494.63;104913;1271;75703;-26
2022/04/18 12:28:40;;;;;;;2.20;1.60;;;;;;;4.67;51.39;98489.95;105004;1272;73996;-25
2022/04/18 12:31:12;;;;;;;2.20;1.20;;;;;;;4.71;50.93;98491.75;104861;1273;74374;-25
2022/04/18 12:33:48;;;;;;;22.40;6.60;;;;;;;4.82;50.95;98490.02;105079;1271;61300;-25
2022/04/18 12:36:28;;;;;;;9.40;3.80;;;;;;;4.84;50.38;98486.76;104846;1274;62191;-25